Tropical Cyclones
[Index]
Main Index Home Page Stock Weather Photos Extreme Storms Discussion Storm News and Storm Chasing Reports Tropical Cyclones / Hurricanes / Typhoons Weather Data and Links Wild Fires / Bushfires Weather Observation Techniques Weather Picture Catalogue Tornado Pictures and Reports Stock Video Footage and DVDs for sale
Season 1966-1967 Tropical Cyclone ELAINE Track Map
Season 1966-1967 Summaries: [BoM-AU] [JTWC-AU] [JTWC-SIO] [JTWC-SPAC] [JTWC-SH]
<<- Previous TC | BoM 1966-1967 Season | Next TC ->>

click for intensity scale information  Lat/long Grid: Show Hide

 Date Labels: Show Hide

Bureau of Meteorology Tropical Cyclone Data

Name: ELAINE
Number: 418 / 196667_10

13 Mar 1967 05:00 UTC to 19 Mar 1967 17:00 UTC

    date/time    lat    long    hPa   cat  kts
1967-03-13 05   14.7   149.3    998                     
1967-03-13 11   15.3   149.0    998                     
1967-03-13 23   16.3   147.9    998                     
1967-03-14 11   16.7   147.3    997                     
1967-03-14 17   16.6   146.7    997                     
1967-03-14 23   16.1   146.9    997                     
1967-03-15 05   15.9   147.5    996                     
1967-03-15 11   16.3   148.3    996                     
1967-03-15 23   17.3   149.2    996                     
1967-03-16 11   17.0   149.9    996                     
1967-03-16 14   17.2   150.5    996                     
1967-03-16 23   19.3   152.7    996                     
1967-03-17 11   23.3   155.0    996                     
1967-03-17 14   24.6   155.4    996                     
1967-03-17 17   25.7   156.0    996                     
1967-03-17 23   28.0   157.0    996                     
1967-03-18 11   30.0   157.8    998                     
1967-03-18 23   31.3   158.6   1000                     
1967-03-19 08   31.9   160.4   1000                     
1967-03-19 17   32.0   164.0   1002                     
Winds are 10-min average.

Tropical cyclone tracks developed by Michael Bath using data from the Bureau of Meteorology and Google Maps.


[Australian Severe Weather index] [Copyright Notice] [Email Contacts] [Search This Site] [Privacy Policy]
Document: tropical_cyclone_elaine.htm Updated: 30 May 2013